Aérodrome :
LOGIN :

S'inscrire | Disclaimer

   EN    FR    IT 

 










Légende :    VFR   VFR Marginal   IFR   IFR Intensif   IFR Très Intensif
Visi : 
Plafond : 
>= 8 km
>= 3000ft
5 à 8 km
1000 à 3000 ft
1500m à 5 km
500 à 1000 ft
800 à 1500m
200 à 500 ft
< 800m
< 200 ft
Symboles :   Orages  Brouillard  Fortes neiges  Fortes précipitations  Vent > 20 kt
SIGMETs :   Divers  Orages  Givrage  Turbulence  Onde Orograph.  Cendres Volcan.






- Altitude de l'aérodrome : 187 ft


ETNW - Wunstorf AB

DERNIER METAR :
  • 301820Z 14005KT 9999 FEW050 28/16 Q1008 BLU+

METARs EXPIRÉS :
  • 301720Z 13006KT 9999 FEW050 29/16 Q1008 BLU+
  • 301620Z 15008KT 9999 FEW050CB SCT160 30/15 Q1009 BLU+FCST CNL

TAF TAF ETNW
Valide du 30 à 17h jusqu'au 01 à 17h UTC


301602Z 3017/0117 12005KT 9999 NSW FEW060 SCT250
PROB30 3017/3021 15010G20KT 3000 TSRA FEW040 BKN060CB
BECMG 3021/3023 27010G20KT 9999 NSW SCT020 BKN060
TEMPO 3021/0108 27015G25KT 4000 SHRA BKN010 BKN050CB
PROB30 3021/0108 28030G35KT 2000 +TSRAGR BKN005 BKN040CB BY ETGL



MET'MAP, la Météo Aéronautique d'un coup d'oeil ! - Copyright ORBIFLY Décembre 2007 - Disclaimer

ORBIFLY MET'MAP TEAM :

Programmation & Développement : Alexandra Zaïnal
Sur une idée originale de : Baudouin d'Aumeries
Soutien technique & logistique : Manuel Goepfert
Assistance : Marc-Olivier Méhu




SOURCES & CREDITS :

   NOAA